Time;durP1;ratioP1;P1;durP2;ratioP2;P2;SDS_P1;SDS_P2;PMS_P1;PMS_P2;Temp;Humidity;BMP_temperature;BMP_pressure;BME280_temperature;BME280_humidity;BME280_pressure;Samples;Min_cycle;Max_cycle;Signal;HPM_P1;HPM_P2
2021/03/22 00:03:31;;;;;;;18.00;3.23;;;;;;;5.11;61.60;98123.50;4913340;29;20266;-87
2021/03/22 00:05:59;;;;;;;22.67;3.53;;;;;;;5.05;61.73;98111.53;4913874;29;20374;-87
2021/03/22 00:08:25;;;;;;;12.20;2.80;;;;;;;5.08;61.58;98116.66;4913445;29;20238;-85
2021/03/22 00:11:04;;;;;;;14.87;3.60;;;;;;;5.09;61.55;98120.97;4944438;28;20935;-86
2021/03/22 00:13:57;;;;;;;16.27;3.10;;;;;;;5.10;61.34;98122.66;4973978;28;20266;-85
2021/03/22 00:16:27;;;;;;;15.33;3.93;;;;;;;5.09;61.40;98118.38;4962240;28;20247;-86
2021/03/22 00:19:00;;;;;;;15.13;3.00;;;;;;;5.09;61.79;98128.72;4972554;28;21066;-86
2021/03/22 00:21:28;;;;;;;19.77;3.73;;;;;;;5.05;61.55;98121.88;4974330;28;20240;-86
2021/03/22 00:23:54;;;;;;;16.90;3.20;;;;;;;5.04;61.79;98112.41;4971615;28;20228;-85
2021/03/22 00:26:21;;;;;;;16.37;3.87;;;;;;;5.03;61.54;98114.13;4976553;28;20860;-87
2021/03/22 00:28:47;;;;;;;21.93;3.70;;;;;;;4.99;61.82;98115.06;4977685;28;20246;-86
2021/03/22 00:31:23;;;;;;;10.10;2.97;;;;;;;5.03;61.74;98113.28;4972415;28;20267;-86
2021/03/22 00:33:50;;;;;;;15.93;3.37;;;;;;;5.02;61.75;98109.00;4972993;28;20224;-87
2021/03/22 00:36:34;;;;;;;18.93;3.73;;;;;;;5.02;61.89;98116.75;4973480;28;20228;-86
2021/03/22 00:39:04;;;;;;;14.70;3.37;;;;;;;4.99;61.92;98109.91;4975834;28;20243;-87
2021/03/22 00:41:31;;;;;;;17.33;3.17;;;;;;;4.98;62.09;98105.63;4978458;28;20605;-87
2021/03/22 00:43:57;;;;;;;18.83;3.40;;;;;;;4.97;62.00;98100.47;4969324;28;20239;-87
2021/03/22 00:46:24;;;;;;;12.90;3.10;;;;;;;4.94;61.90;98100.50;4971399;28;20300;-87
2021/03/22 00:48:50;;;;;;;13.97;3.03;;;;;;;4.96;61.74;98103.94;4974969;28;20270;-86
2021/03/22 00:51:16;;;;;;;16.80;3.43;;;;;;;4.92;62.23;98102.28;4975729;28;20943;-85
2021/03/22 00:53:51;;;;;;;15.27;3.10;;;;;;;4.94;62.05;98105.69;4974279;28;20374;-86
2021/03/22 00:56:17;;;;;;;26.33;4.17;;;;;;;4.92;62.29;98104.84;4970720;28;20304;-86
2021/03/22 00:58:47;;;;;;;17.73;2.97;;;;;;;4.88;62.24;98098.88;4975149;28;20615;-86
2021/03/22 01:01:16;;;;;;;14.00;3.03;;;;;;;4.88;62.29;98100.63;4973982;28;20232;-86
2021/03/22 01:03:47;;;;;;;15.53;3.00;;;;;;;4.86;62.32;98102.38;4974533;28;20216;-86
2021/03/22 01:06:13;;;;;;;17.47;3.23;;;;;;;4.79;62.28;98091.28;4973694;28;20245;-86
2021/03/22 01:08:48;;;;;;;15.23;3.00;;;;;;;4.79;62.19;98092.13;4973240;28;20220;-87
2021/03/22 01:11:19;;;;;;;18.20;3.50;;;;;;;4.74;62.66;98080.16;4973015;28;20248;-86
2021/03/22 01:13:50;;;;;;;18.70;3.57;;;;;;;4.66;62.73;98077.72;4975105;28;20291;-86
2021/03/22 01:16:17;;;;;;;18.10;3.10;;;;;;;4.67;62.76;98079.44;4974411;28;20307;-86
2021/03/22 01:18:47;;;;;;;15.50;3.13;;;;;;;4.64;62.72;98074.31;4974813;28;20710;-85
2021/03/22 01:21:18;;;;;;;20.20;4.27;;;;;;;4.59;62.98;98076.09;4978898;28;20245;-86
2021/03/22 01:23:45;;;;;;;20.43;3.57;;;;;;;4.61;62.71;98088.13;4973660;28;20752;-86
2021/03/22 01:26:12;;;;;;;20.40;3.87;;;;;;;4.58;63.21;98087.31;4973369;28;20870;-87
2021/03/22 01:28:38;;;;;;;18.43;3.63;;;;;;;4.53;63.29;98081.38;4974105;28;20228;-87
2021/03/22 01:31:07;;;;;;;17.50;3.67;;;;;;;4.51;63.40;98080.53;4976362;28;20426;-86
2021/03/22 01:33:38;;;;;;;13.93;2.93;;;;;;;4.49;63.30;98082.31;4970327;28;20228;-87
2021/03/22 01:36:07;;;;;;;14.37;2.93;;;;;;;4.48;63.74;98088.34;4976191;28;20295;-87
2021/03/22 01:38:34;;;;;;;14.10;3.20;;;;;;;4.47;63.55;98092.66;4976244;28;20235;-86
2021/03/22 01:41:27;;;;;;;17.20;3.47;;;;;;;4.47;63.50;98089.19;4973589;28;20217;-86
2021/03/22 01:44:08;;;;;;;16.57;4.10;;;;;;;4.47;63.65;98078.84;4971636;28;20300;-87
2021/03/22 01:46:36;;;;;;;12.87;3.60;;;;;;;4.47;63.45;98086.59;4973183;28;20259;-85
2021/03/22 01:49:05;;;;;;;13.03;3.13;;;;;;;4.44;63.76;98096.13;4974946;28;20613;-87
2021/03/22 01:51:32;;;;;;;14.63;3.33;;;;;;;4.47;63.73;98091.78;4976060;28;20256;-86
2021/03/22 01:53:58;;;;;;;15.50;3.97;;;;;;;4.47;63.59;98084.03;4975350;28;20221;-88
2021/03/22 01:56:31;;;;;;;11.57;3.10;;;;;;;4.46;63.76;98092.66;4971665;28;20227;-88
2021/03/22 01:58:57;;;;;;;9.63;2.87;;;;;;;4.44;63.44;98090.94;4970811;28;20264;-85
2021/03/22 02:01:26;;;;;;;15.00;3.50;;;;;;;4.42;63.62;98087.53;4976165;28;20236;-86
2021/03/22 02:03:52;;;;;;;12.60;3.07;;;;;;;4.37;63.74;98099.66;4978656;28;20235;-87
2021/03/22 02:06:18;;;;;;;11.67;2.90;;;;;;;4.33;63.29;98095.44;4981068;28;20216;-86
2021/03/22 02:08:45;;;;;;;13.47;3.00;;;;;;;4.33;63.79;98103.16;4978067;28;20805;-87
2021/03/22 02:11:17;;;;;;;14.80;3.10;;;;;;;4.34;64.16;98107.47;4975424;28;20275;-86
2021/03/22 02:13:45;;;;;;;13.80;3.43;;;;;;;4.34;64.18;98101.47;4972978;28;20301;-86
2021/03/22 02:16:15;;;;;;;13.27;2.87;;;;;;;4.32;63.96;98101.47;4973685;28;20216;-87
2021/03/22 02:18:54;;;;;;;18.87;3.23;;;;;;;4.34;64.00;98114.38;4978810;28;20596;-86
2021/03/22 02:21:54;;;;;;;19.07;3.80;;;;;;;4.29;63.98;98106.69;4973957;28;20293;-85
2021/03/22 02:24:47;;;;;;;13.10;2.57;;;;;;;4.27;64.43;98110.16;4977529;28;20224;-85
2021/03/22 02:27:53;;;;;;;12.80;3.10;;;;;;;4.32;64.05;98111.81;4979381;28;20263;-87
2021/03/22 02:30:46;;;;;;;17.30;3.37;;;;;;;4.32;64.13;98116.97;4978936;28;20215;-86
2021/03/22 02:33:54;;;;;;;13.40;3.20;;;;;;;4.32;64.12;98122.13;4977688;28;20345;-89
2021/03/22 02:36:25;;;;;;;12.07;2.60;;;;;;;4.31;63.82;98135.91;4955725;28;20807;-87
2021/03/22 02:38:53;;;;;;;17.87;2.80;;;;;;;4.31;63.74;98133.34;4977643;28;20298;-86
2021/03/22 02:41:23;;;;;;;14.77;3.93;;;;;;;4.30;64.13;98134.22;4972965;28;20232;-87
2021/03/22 02:44:00;;;;;;;9.43;2.77;;;;;;;4.31;64.28;98133.34;4980608;28;20755;-87
2021/03/22 02:46:27;;;;;;;12.77;3.53;;;;;;;4.32;63.66;98129.88;4978945;28;20229;-86
2021/03/22 02:48:53;;;;;;;15.73;2.87;;;;;;;4.33;63.78;98131.56;4977046;28;20258;-86
2021/03/22 02:51:24;;;;;;;10.17;2.73;;;;;;;4.33;64.31;98130.72;4977107;28;20295;-87
2021/03/22 02:53:54;;;;;;;14.43;2.77;;;;;;;4.39;63.92;98146.13;4973893;28;20226;-86
2021/03/22 02:56:34;;;;;;;18.37;3.40;;;;;;;4.42;64.00;98141.78;4977096;28;20866;-86
2021/03/22 02:59:05;;;;;;;17.53;2.90;;;;;;;4.40;63.79;98143.53;4977288;28;20236;-86
2021/03/22 03:01:35;;;;;;;15.60;3.40;;;;;;;4.40;63.84;98140.94;4977280;28;20297;-85
2021/03/22 03:04:01;;;;;;;15.43;3.10;;;;;;;4.40;63.91;98140.94;4980676;28;20220;-87
2021/03/22 03:06:48;;;;;;;8.83;2.40;;;;;;;4.44;63.68;98146.94;4978449;28;20314;-87
2021/03/22 03:09:15;;;;;;;16.00;3.00;;;;;;;4.41;63.90;98140.09;4973056;28;20577;-85
2021/03/22 03:11:42;;;;;;;11.40;3.17;;;;;;;4.47;64.03;98140.84;4974766;28;20586;-87
2021/03/22 03:14:08;;;;;;;13.10;2.60;;;;;;;4.50;63.55;98146.81;4975608;28;20836;-85
2021/03/22 03:16:34;;;;;;;18.67;3.13;;;;;;;4.50;63.94;98140.81;4976368;28;20224;-86
2021/03/22 03:19:01;;;;;;;13.03;2.63;;;;;;;4.47;63.47;98148.59;4977155;28;20240;-85
2021/03/22 03:21:28;;;;;;;16.67;2.80;;;;;;;4.44;63.58;98139.19;4974761;28;20351;-86
2021/03/22 03:23:55;;;;;;;14.17;3.17;;;;;;;4.42;64.00;98144.34;4976014;28;20209;-87
2021/03/22 03:26:22;;;;;;;8.57;2.20;;;;;;;4.40;63.71;98140.94;4974265;28;20254;-87
2021/03/22 03:28:49;;;;;;;14.60;2.70;;;;;;;4.41;63.70;98144.38;4977449;28;20758;-87
2021/03/22 03:31:15;;;;;;;20.07;3.77;;;;;;;4.35;63.44;98142.72;4975584;28;20343;-86
2021/03/22 03:33:41;;;;;;;12.00;2.63;;;;;;;4.32;64.17;98147.97;4972865;28;20225;-86
2021/03/22 03:36:08;;;;;;;14.57;2.80;;;;;;;4.31;63.99;98150.56;4977896;28;20256;-86
2021/03/22 03:38:35;;;;;;;13.13;2.90;;;;;;;4.29;63.83;98158.31;4975208;28;20209;-86
2021/03/22 03:41:02;;;;;;;10.10;2.30;;;;;;;4.25;64.10;98156.66;4976501;28;20224;-87
2021/03/22 03:43:29;;;;;;;21.33;3.43;;;;;;;4.24;64.34;98165.28;4977473;28;20232;-87
2021/03/22 03:45:55;;;;;;;16.17;3.13;;;;;;;4.18;63.94;98162.78;4975909;28;20329;-87
2021/03/22 03:48:23;;;;;;;16.37;2.90;;;;;;;4.14;64.01;98153.38;4977266;28;20225;-86
2021/03/22 03:50:51;;;;;;;16.53;2.90;;;;;;;4.11;64.67;98153.41;4976140;28;20661;-87
2021/03/22 03:53:17;;;;;;;15.07;3.03;;;;;;;4.09;64.44;98156.00;4975126;28;20845;-87
2021/03/22 03:55:44;;;;;;;17.47;3.50;;;;;;;4.05;64.58;98155.19;4975558;28;20224;-87
2021/03/22 03:58:11;;;;;;;13.50;2.73;;;;;;;4.00;65.00;98143.19;4974560;28;20227;-86
2021/03/22 04:00:41;;;;;;;16.97;4.07;;;;;;;3.98;64.92;98147.53;4978275;28;20241;-86
2021/03/22 04:03:22;;;;;;;17.30;3.30;;;;;;;4.00;64.95;98143.19;4975168;28;20792;-87
2021/03/22 04:05:58;;;;;;;13.77;2.83;;;;;;;4.02;64.77;98149.19;4974141;28;20666;-87
2021/03/22 04:08:26;;;;;;;15.00;2.50;;;;;;;4.05;65.02;98154.34;4973949;28;20224;-86
2021/03/22 04:10:53;;;;;;;16.97;3.23;;;;;;;4.08;64.62;98153.44;4973775;28;20212;-87
2021/03/22 04:13:20;;;;;;;10.90;3.10;;;;;;;4.14;64.43;98149.06;4974684;28;20310;-87
2021/03/22 04:15:47;;;;;;;15.07;3.13;;;;;;;4.17;64.29;98154.19;4975790;28;20311;-87
2021/03/22 04:18:13;;;;;;;13.60;2.47;;;;;;;4.15;64.40;98155.06;4972358;28;20717;-87
2021/03/22 04:20:39;;;;;;;12.57;2.77;;;;;;;4.08;64.47;98143.97;4969837;28;20231;-85
2021/03/22 04:23:06;;;;;;;16.47;2.80;;;;;;;4.05;64.50;98155.19;4974490;28;20711;-87
2021/03/22 04:25:32;;;;;;;17.40;2.93;;;;;;;4.05;65.09;98149.16;4978211;28;20329;-87
2021/03/22 04:27:59;;;;;;;15.20;2.97;;;;;;;4.00;64.74;98149.22;4974992;28;20256;-86
2021/03/22 04:30:28;;;;;;;11.73;2.70;;;;;;;3.99;64.69;98159.56;4976358;28;20217;-86
2021/03/22 04:32:54;;;;;;;14.80;3.13;;;;;;;3.91;65.23;98157.06;4973953;28;20827;-88
2021/03/22 04:35:21;;;;;;;16.10;3.57;;;;;;;3.83;65.54;98161.47;4975107;28;20228;-86
2021/03/22 04:37:48;;;;;;;15.53;2.50;;;;;;;3.74;65.37;98161.56;4975944;28;20221;-86
2021/03/22 04:40:17;;;;;;;10.87;2.87;;;;;;;3.66;65.76;98156.50;4978773;28;20685;-87
2021/03/22 04:42:43;;;;;;;14.07;3.40;;;;;;;3.55;66.03;98160.91;4977177;28;20291;-87
2021/03/22 04:45:11;;;;;;;11.30;2.83;;;;;;;3.44;66.60;98161.88;4970768;28;20311;-87
2021/03/22 04:47:40;;;;;;;9.20;3.03;;;;;;;3.32;66.97;98167.16;4971794;28;20223;-88
2021/03/22 04:50:07;;;;;;;14.20;3.27;;;;;;;3.25;66.78;98163.78;4975541;28;20307;-87
2021/03/22 04:52:34;;;;;;;9.77;3.23;;;;;;;3.19;66.85;98163.81;4970752;28;20244;-87
2021/03/22 04:55:00;;;;;;;14.20;2.87;;;;;;;3.14;67.25;98163.00;4970449;28;20213;-87
2021/03/22 04:57:28;;;;;;;15.37;3.17;;;;;;;3.08;67.23;98163.91;4976713;28;20590;-86
2021/03/22 04:59:54;;;;;;;13.53;2.80;;;;;;;3.00;67.07;98165.72;4973214;28;20275;-86
2021/03/22 05:02:21;;;;;;;15.60;3.13;;;;;;;2.96;67.82;98178.63;4976352;28;20237;-86
2021/03/22 05:04:48;;;;;;;11.97;2.73;;;;;;;2.93;67.59;98171.78;4977278;28;20538;-87
2021/03/22 05:07:16;;;;;;;11.50;2.50;;;;;;;2.91;67.79;98167.50;4974322;28;20223;-87
2021/03/22 05:09:43;;;;;;;12.33;2.40;;;;;;;2.88;67.75;98161.50;4973461;28;20733;-87
2021/03/22 05:12:11;;;;;;;15.70;2.80;;;;;;;2.87;67.75;98162.38;4971316;28;20320;-87
2021/03/22 05:14:37;;;;;;;29.73;13.30;;;;;;;2.85;67.76;98168.41;4975823;28;20687;-88
2021/03/22 05:17:04;;;;;;;17.13;6.37;;;;;;;2.84;68.05;98170.13;4976101;28;20220;-87
2021/03/22 05:19:30;;;;;;;15.13;2.73;;;;;;;2.86;67.66;98176.09;4973629;28;20228;-86
2021/03/22 05:21:58;;;;;;;12.27;2.83;;;;;;;2.94;67.70;98185.50;4973848;28;20231;-88
2021/03/22 05:24:25;;;;;;;12.87;2.40;;;;;;;3.02;67.47;98184.59;4971829;28;20427;-87
2021/03/22 05:26:52;;;;;;;10.10;2.23;;;;;;;3.11;67.36;98193.97;4975963;28;20774;-88
2021/03/22 05:29:23;;;;;;;12.70;2.53;;;;;;;3.18;67.28;98199.91;4974830;28;20339;-87
2021/03/22 05:31:50;;;;;;;19.07;3.87;;;;;;;3.25;67.19;98199.88;4970894;28;20276;-87
2021/03/22 05:34:16;;;;;;;22.90;6.77;;;;;;;3.25;66.79;98191.25;4974109;28;20225;-87
2021/03/22 05:36:42;;;;;;;18.33;4.30;;;;;;;3.23;66.69;98198.16;4968215;28;20224;-87
2021/03/22 05:39:10;;;;;;;27.20;10.23;;;;;;;3.16;66.53;98194.81;4973668;28;20339;-87
2021/03/22 05:41:47;;;;;;;26.40;7.73;;;;;;;3.09;66.88;98193.13;4973494;28;20340;-86
2021/03/22 05:44:21;;;;;;;12.97;4.43;;;;;;;3.04;67.09;98197.47;4972212;28;20797;-87
2021/03/22 05:46:51;;;;;;;15.23;3.13;;;;;;;3.03;68.06;98198.31;4974592;28;20228;-87
2021/03/22 05:49:30;;;;;;;16.33;3.13;;;;;;;3.01;67.63;98197.47;4977977;28;20223;-88
2021/03/22 05:52:09;;;;;;;18.67;3.63;;;;;;;2.97;67.99;98200.94;4974030;28;20240;-87
2021/03/22 05:55:11;;;;;;;12.80;3.47;;;;;;;2.93;68.19;98199.28;4972384;28;20304;-87
2021/03/22 05:57:59;;;;;;;9.50;3.60;;;;;;;2.93;68.10;98201.84;4971722;28;20291;-86
2021/03/22 06:00:39;;;;;;;13.87;3.93;;;;;;;2.91;68.16;98201.00;4973581;28;20764;-87
2021/03/22 06:03:10;;;;;;;15.30;3.37;;;;;;;2.89;68.85;98208.75;4967722;28;20875;-86
2021/03/22 06:05:40;;;;;;;11.50;3.57;;;;;;;2.88;68.41;98213.00;4975443;28;20217;-87
2021/03/22 06:08:17;;;;;;;14.97;3.33;;;;;;;2.89;68.67;98222.47;4974526;28;20715;-88
2021/03/22 06:10:48;;;;;;;13.77;2.90;;;;;;;2.88;68.65;98227.63;4976598;28;20228;-86
2021/03/22 06:13:17;;;;;;;13.57;2.87;;;;;;;2.92;68.72;98233.63;4978408;28;20709;-86
2021/03/22 06:15:49;;;;;;;13.40;3.17;;;;;;;2.95;68.57;98224.16;4975259;28;20213;-87
2021/03/22 06:18:22;;;;;;;14.93;2.97;;;;;;;3.00;68.45;98231.88;4969983;28;20227;-87
2021/03/22 06:20:52;;;;;;;14.97;2.97;;;;;;;3.01;68.60;98231.81;4976510;28;20247;-88
2021/03/22 06:23:21;;;;;;;13.30;2.70;;;;;;;3.04;68.36;98236.13;4973151;28;20331;-86
2021/03/22 06:25:47;;;;;;;12.07;2.67;;;;;;;3.05;68.35;98236.13;4975122;28;20223;-87
2021/03/22 06:28:20;;;;;;;15.53;3.70;;;;;;;3.11;68.32;98239.50;4971594;28;20246;-87
2021/03/22 06:30:56;;;;;;;10.33;2.63;;;;;;;3.17;68.06;98235.16;4977629;28;20219;-87
2021/03/22 06:33:27;;;;;;;14.53;3.10;;;;;;;3.20;67.59;98231.72;4972630;28;20359;-87
2021/03/22 06:35:53;;;;;;;13.03;2.40;;;;;;;3.26;67.92;98242.81;4973699;28;20219;-87
2021/03/22 06:38:19;;;;;;;13.20;2.97;;;;;;;3.33;67.40;98241.06;4973683;28;20241;-87
2021/03/22 06:40:49;;;;;;;12.90;2.70;;;;;;;3.36;67.37;98245.31;4973381;28;20244;-95
2021/03/22 06:43:18;;;;;;;14.27;2.63;;;;;;;3.41;67.40;98248.72;4974977;28;20316;-88
2021/03/22 06:45:45;;;;;;;9.00;2.50;;;;;;;3.49;67.50;98249.50;4978121;28;20778;-88
2021/03/22 06:48:27;;;;;;;11.13;2.63;;;;;;;3.59;67.12;98252.88;4980619;28;20223;-88
2021/03/22 06:50:55;;;;;;;12.63;2.43;;;;;;;3.64;66.84;98251.97;4976178;28;20226;-86
2021/03/22 06:53:33;;;;;;;12.10;2.53;;;;;;;3.67;67.00;98246.75;4976509;28;20220;-85
2021/03/22 06:56:10;;;;;;;11.53;2.37;;;;;;;3.79;66.71;98250.13;4973885;28;20258;-85
2021/03/22 06:58:39;;;;;;;11.33;2.20;;;;;;;3.84;66.96;98250.91;4972418;28;20238;-85
2021/03/22 07:01:16;;;;;;;13.60;2.67;;;;;;;3.88;66.18;98250.03;4972308;28;20247;-86
2021/03/22 07:03:43;;;;;;;11.67;2.40;;;;;;;3.98;66.17;98251.63;4975720;28;20260;-86
2021/03/22 07:06:16;;;;;;;10.17;2.60;;;;;;;4.01;66.00;98253.34;4977099;28;20737;-86
2021/03/22 07:08:43;;;;;;;15.43;2.97;;;;;;;4.07;65.85;98255.00;4975722;28;20213;-85
2021/03/22 07:11:11;;;;;;;15.30;2.97;;;;;;;4.14;65.81;98269.53;4979053;28;20235;-90
2021/03/22 07:13:39;;;;;;;12.77;2.60;;;;;;;4.22;65.73;98265.97;4975709;28;20239;-86
2021/03/22 07:16:23;;;;;;;10.47;2.43;;;;;;;4.31;64.83;98264.19;4978630;28;20240;-90
2021/03/22 07:19:05;;;;;;;15.53;3.30;;;;;;;4.34;65.14;98264.16;4980425;28;20698;-85
2021/03/22 07:21:32;;;;;;;10.93;2.90;;;;;;;4.40;64.57;98275.25;4976038;28;20314;-85
2021/03/22 07:24:07;;;;;;;11.17;2.87;;;;;;;4.46;64.23;98273.47;4976851;28;20312;-86
2021/03/22 07:26:51;;;;;;;14.30;2.60;;;;;;;4.52;64.03;98270.81;4976603;28;20257;-87
2021/03/22 07:30:00;;;;;;;11.30;2.67;;;;;;;4.52;63.46;98268.22;4977016;28;20228;-87
2021/03/22 07:32:47;;;;;;;10.70;2.40;;;;;;;4.52;64.16;98268.22;4968456;28;20344;-87
2021/03/22 07:36:02;;;;;;;14.27;2.77;;;;;;;4.54;63.92;98274.22;4970682;28;20694;-88
2021/03/22 07:39:19;;;;;;;16.53;3.80;;;;;;;4.54;63.30;98276.81;4966542;28;20221;-87
2021/03/22 07:42:07;;;;;;;11.27;2.60;;;;;;;4.51;63.82;98267.38;5006129;23;20235;-87
2021/03/22 07:45:08;;;;;;;13.87;2.67;;;;;;;4.60;63.98;98276.75;4993404;28;20350;-87
2021/03/22 07:48:18;;;;;;;11.90;2.87;;;;;;;4.57;62.74;98276.78;4991130;28;20227;-86
2021/03/22 07:50:59;;;;;;;10.73;2.60;;;;;;;4.51;63.09;98279.44;4995954;28;20219;-87
2021/03/22 07:53:40;;;;;;;13.17;3.30;;;;;;;4.43;62.68;98275.22;4974395;28;20256;-87
2021/03/22 07:56:11;;;;;;;13.90;2.73;;;;;;;4.53;62.98;98288.88;4975387;28;21221;-87
2021/03/22 07:59:54;;;;;;;11.43;2.67;;;;;;;4.64;63.25;98279.25;4976021;28;20682;-88
2021/03/22 08:03:01;;;;;;;11.87;3.30;;;;;;;4.70;62.11;98283.50;4900345;29;20242;-86
2021/03/22 08:05:39;;;;;;;14.60;3.23;;;;;;;4.68;61.86;98277.50;4906799;28;20329;-86
2021/03/22 08:08:49;;;;;;;10.90;3.00;;;;;;;4.73;63.10;98287.78;4974462;28;20813;-86
2021/03/22 08:11:34;;;;;;;13.83;3.00;;;;;;;4.86;62.89;98278.13;4973919;28;20258;-87
2021/03/22 08:14:16;;;;;;;11.30;3.40;;;;;;;4.90;62.53;98283.22;4970332;28;20283;-88
2021/03/22 08:20:27;;;;;;;10.27;2.63;;;;;;;4.99;61.35;98290.00;4974391;28;20988;-88
2021/03/22 08:22:58;;;;;;;17.47;2.70;;;;;;;4.95;60.96;98278.00;4976108;28;20237;-89
2021/03/22 08:25:29;;;;;;;11.70;2.20;;;;;;;5.06;61.62;98294.22;4979097;28;20782;-87
2021/03/22 08:28:01;;;;;;;12.43;3.07;;;;;;;5.11;60.96;98294.16;4973793;28;20220;-85
2021/03/22 08:30:32;;;;;;;13.40;3.10;;;;;;;5.09;61.15;98286.44;4972748;28;20213;-86
2021/03/22 08:33:03;;;;;;;12.30;2.90;;;;;;;5.08;60.45;98300.22;4972986;28;20343;-86
2021/03/22 08:35:40;;;;;;;10.87;2.77;;;;;;;5.15;60.86;98299.25;4975114;28;20580;-86
2021/03/22 08:38:15;;;;;;;13.23;2.73;;;;;;;5.21;61.60;98306.06;4974442;28;20219;-86
2021/03/22 08:40:46;;;;;;;11.53;2.90;;;;;;;5.21;60.92;98300.91;4971893;28;20327;-89
2021/03/22 08:43:35;;;;;;;11.20;2.80;;;;;;;5.19;60.47;98300.06;4972569;28;20253;-87
2021/03/22 08:46:40;;;;;;;10.13;2.47;;;;;;;5.22;60.28;98303.47;4972789;28;20211;-87
2021/03/22 08:49:18;;;;;;;12.83;3.50;;;;;;;5.25;60.85;98301.72;4973693;28;20212;-86
2021/03/22 08:51:44;;;;;;;12.00;3.00;;;;;;;5.25;60.34;98301.72;4974509;28;20232;-87
2021/03/22 08:54:22;;;;;;;12.70;2.90;;;;;;;5.23;59.73;98314.66;4972555;28;20303;-87
2021/03/22 08:56:54;;;;;;;11.33;2.67;;;;;;;5.21;60.04;98311.25;4973008;28;20208;-86
2021/03/22 08:59:21;;;;;;;10.60;2.97;;;;;;;5.28;60.64;98325.81;4971336;28;20245;-86
2021/03/22 09:01:50;;;;;;;12.50;2.23;;;;;;;5.35;60.07;98321.41;4973280;28;20248;-86
2021/03/22 09:04:41;;;;;;;13.13;2.80;;;;;;;5.42;59.55;98320.41;4969253;28;20251;-86
2021/03/22 09:07:32;;;;;;;15.13;3.33;;;;;;;5.47;59.16;98323.78;4967162;28;20246;-85
2021/03/22 09:10:37;;;;;;;8.37;2.23;;;;;;;5.42;59.09;98315.22;4968217;28;21101;-87
2021/03/22 09:13:24;;;;;;;14.05;2.80;;;;;;;5.53;59.12;98321.13;4975161;28;20322;-86
2021/03/22 09:16:10;;;;;;;10.70;2.17;;;;;;;5.62;59.57;98329.59;4972324;28;20324;-86
2021/03/22 09:19:15;;;;;;;11.60;2.90;;;;;;;5.70;58.76;98320.00;4976555;28;20242;-86
2021/03/22 09:21:42;;;;;;;9.07;2.60;;;;;;;5.70;58.56;98326.03;4970692;28;20329;-86
2021/03/22 09:24:42;;;;;;;9.50;2.23;;;;;;;5.74;59.26;98332.84;4975507;28;20692;-87
2021/03/22 09:27:31;;;;;;;11.20;2.72;;;;;;;5.82;57.66;98335.31;4974365;28;20232;-85
2021/03/22 09:30:32;;;;;;;9.00;2.30;;;;;;;5.83;57.97;98336.19;4977213;28;20212;-85
2021/03/22 09:32:58;;;;;;;11.00;2.73;;;;;;;5.76;58.01;98330.25;4973714;28;20232;-86
2021/03/22 09:36:12;;;;;;;9.90;2.20;;;;;;;5.76;56.81;98340.59;4974991;28;20210;-87
2021/03/22 09:38:48;;;;;;;12.30;2.87;;;;;;;5.72;57.59;98341.53;4973160;28;20214;-85
2021/03/22 09:41:17;;;;;;;9.30;2.07;;;;;;;5.70;57.13;98340.72;4971001;28;20240;-86
2021/03/22 09:44:07;;;;;;;8.63;2.28;;;;;;;5.71;57.26;98342.41;4970800;28;20304;-86
2021/03/22 09:46:36;;;;;;;7.57;2.37;;;;;;;5.69;57.38;98349.34;4974438;28;20220;-87
2021/03/22 09:49:20;;;;;;;9.57;2.87;;;;;;;5.65;57.56;98342.50;4969834;28;20334;-85
2021/03/22 09:51:49;;;;;;;8.33;2.30;;;;;;;5.62;57.91;98343.41;4969580;28;20247;-86
2021/03/22 09:54:31;;;;;;;6.17;2.40;;;;;;;5.59;57.87;98344.31;4974032;28;20220;-85
2021/03/22 09:57:26;;;;;;;8.57;2.53;;;;;;;5.50;58.46;98354.78;4974084;28;20631;-86
2021/03/22 10:00:21;;;;;;;10.77;2.80;;;;;;;5.39;58.78;98347.19;4973097;28;20244;-85
2021/03/22 10:02:50;;;;;;;14.40;2.70;;;;;;;5.38;59.23;98349.78;4993096;23;20355;-86
2021/03/22 10:05:20;;;;;;;9.87;2.70;;;;;;;5.38;58.62;98354.97;4972668;28;20244;-86
2021/03/22 10:07:52;;;;;;;5.20;2.10;;;;;;;5.36;59.01;98357.56;4975059;28;20253;-88
2021/03/22 10:10:25;;;;;;;10.90;2.70;;;;;;;5.29;58.55;98355.09;4970710;28;20217;-85
2021/03/22 10:12:53;;;;;;;6.80;2.00;;;;;;;5.22;58.69;98347.44;4972943;28;20246;-86
2021/03/22 10:15:28;;;;;;;11.40;2.90;;;;;;;5.21;59.30;98350.88;4974089;28;20748;-85
2021/03/22 10:18:05;;;;;;;10.63;3.00;;;;;;;5.28;59.72;98358.59;4975167;28;20226;-85
2021/03/22 10:20:37;;;;;;;9.73;2.70;;;;;;;5.27;59.41;98356.84;4971966;28;20244;-86
2021/03/22 10:23:08;;;;;;;10.47;2.77;;;;;;;5.22;59.32;98354.34;4976467;28;20229;-87
2021/03/22 10:25:36;;;;;;;10.10;2.50;;;;;;;5.14;59.05;98357.00;4977627;28;20220;-87
2021/03/22 10:28:13;;;;;;;6.93;2.30;;;;;;;5.09;58.85;98357.94;4976609;28;20272;-86
2021/03/22 10:30:40;;;;;;;8.00;2.60;;;;;;;5.12;60.14;98353.59;4972315;28;20200;-87
2021/03/22 10:33:21;;;;;;;10.20;2.73;;;;;;;5.27;60.95;98373.22;4979270;28;20337;-86
2021/03/22 10:35:48;;;;;;;8.17;2.50;;;;;;;5.32;59.45;98370.59;4978559;28;20216;-87
2021/03/22 10:38:17;;;;;;;8.27;2.67;;;;;;;5.36;59.41;98361.91;4977842;28;20228;-86
2021/03/22 10:40:44;;;;;;;7.73;2.37;;;;;;;5.41;59.93;98365.28;4979160;28;20246;-85
2021/03/22 10:43:24;;;;;;;6.13;1.97;;;;;;;5.51;60.09;98374.59;4976494;28;20236;-86
2021/03/22 10:45:50;;;;;;;7.70;2.30;;;;;;;5.57;59.41;98379.72;4977045;28;20991;-87
2021/03/22 10:48:32;;;;;;;6.17;2.10;;;;;;;5.65;59.28;98370.97;4979877;28;20275;-86
2021/03/22 10:51:04;;;;;;;9.00;1.83;;;;;;;5.65;58.87;98374.41;4972031;28;20224;-86
2021/03/22 10:53:31;;;;;;;9.33;2.70;;;;;;;5.65;58.61;98384.75;4976669;28;20231;-86
2021/03/22 10:56:20;;;;;;;9.70;2.70;;;;;;;5.63;58.58;98377.91;4976966;28;20223;-86
2021/03/22 10:58:49;;;;;;;10.53;2.77;;;;;;;5.62;58.28;98379.63;4974307;28;20224;-87
2021/03/22 11:01:34;;;;;;;7.03;2.75;;;;;;;5.63;58.56;98372.75;4977753;28;20827;-86
2021/03/22 11:04:04;;;;;;;10.53;2.47;;;;;;;5.69;58.62;98378.66;4978075;28;20259;-85
2021/03/22 11:06:34;;;;;;;8.23;2.07;;;;;;;5.70;57.81;98376.94;4974764;28;20228;-85
2021/03/22 11:09:03;;;;;;;12.00;2.23;;;;;;;5.74;57.44;98376.00;4977025;28;20251;-87
2021/03/22 11:11:33;;;;;;;6.70;2.10;;;;;;;5.80;57.84;98375.91;4990667;23;20561;-86
2021/03/22 11:14:09;;;;;;;7.50;2.20;;;;;;;5.91;58.31;98384.34;4985731;28;20243;-86
2021/03/22 11:16:38;;;;;;;7.90;2.60;;;;;;;5.98;57.63;98379.97;4991049;28;20217;-86
2021/03/22 11:19:24;;;;;;;10.50;2.53;;;;;;;6.08;57.18;98388.44;4982896;28;20314;-85
2021/03/22 11:21:50;;;;;;;8.77;3.03;;;;;;;6.08;56.54;98389.28;4991117;28;20718;-86
2021/03/22 11:27:03;;;;;;;9.27;2.10;;;;;;;6.17;56.16;98393.47;4989481;28;20231;-86
2021/03/22 11:29:29;;;;;;;6.53;1.95;;;;;;;6.22;56.68;98391.66;4990851;28;20209;-86
2021/03/22 11:31:58;;;;;;;6.30;1.95;;;;;;;6.26;56.36;98385.53;4988833;28;20690;-86
2021/03/22 11:34:30;;;;;;;6.20;1.95;;;;;;;6.32;55.85;98385.44;4987463;28;20243;-85
2021/03/22 11:37:02;;;;;;;8.52;2.13;;;;;;;6.34;54.76;98386.25;4985966;28;20227;-86
2021/03/22 11:39:38;;;;;;;6.17;2.47;;;;;;;6.35;54.79;98379.34;4988275;28;20315;-86
2021/03/22 11:42:08;;;;;;;7.83;1.77;;;;;;;6.36;54.51;98379.31;4985742;28;20301;-85
2021/03/22 11:44:37;;;;;;;9.35;2.10;;;;;;;6.34;53.86;98365.53;4986064;28;20570;-86
2021/03/22 11:47:26;;;;;;;6.82;2.10;;;;;;;6.42;54.26;98385.28;4987491;28;20306;-85
2021/03/22 11:49:54;;;;;;;8.20;1.95;;;;;;;6.39;53.72;98375.81;4990172;28;20242;-86
2021/03/22 11:52:22;;;;;;;7.13;2.22;;;;;;;6.43;54.17;98379.19;4988401;28;20229;-85
2021/03/22 11:54:50;;;;;;;5.97;2.20;;;;;;;6.44;54.71;98375.72;4986386;28;20212;-87
2021/03/22 11:57:19;;;;;;;6.20;1.67;;;;;;;6.40;54.42;98374.09;4989287;28;20686;-86
2021/03/22 12:00:30;;;;;;;7.83;1.83;;;;;;;6.46;55.17;98379.16;4984496;28;20278;-85
2021/03/22 12:03:00;;;;;;;8.32;1.92;;;;;;;6.39;54.88;98377.53;4988932;28;20247;-86
2021/03/22 12:05:30;;;;;;;6.85;1.80;;;;;;;6.39;55.37;98375.81;4987633;28;20223;-85
2021/03/22 12:07:57;;;;;;;8.37;2.87;;;;;;;6.48;55.52;98367.00;4988256;28;20231;-86
2021/03/22 12:10:27;;;;;;;5.63;1.50;;;;;;;6.48;55.20;98361.81;4982206;28;20218;-86
2021/03/22 12:12:53;;;;;;;8.20;2.33;;;;;;;6.50;54.86;98365.25;4987844;28;20247;-86
2021/03/22 12:15:20;;;;;;;7.70;2.43;;;;;;;6.46;55.30;98359.25;4987998;28;20690;-86